Terminal Aerodrome Forecast
Issued by NWS North Platte, NE

Home | Current Version | Previous Version | Text Only | Print | Product List | Glossary Off
Versions: 1 2 3 4 5 6 7 8 9 10 11 12 13

497
FTUS43 KLBF 211126
TAFVTN
TAF
KVTN 211126Z 2112/2212 33016G24KT P6SM BKN200
     FM211400 32020G30KT P6SM VCSH BKN050 BKN100
     FM211800 31016G23KT P6SM BKN100
     FM212300 31012KT P6SM SCT250
     FM220100 30008KT P6SM SKC
     FM220500 25004KT P6SM SKC=

USA.gov is the U.S. government's official web portal to all federal, state and local government web resources and services.